Pagina principale
METAR-TAF:

METAR-TAF

Aeroporti :

Nadi, Figi

Aeroporto Internazionale di Nadi

latitudine: 17-45S, longitudine: 177-27E, altezza: 13 m

Osservazione

Il bollettino è stato emesso 32 minuti fa, alle 05:00 UTC
Vento 11 kt da ovest/nord-ovest
Temperature 30°C
Umidità 62%
Pressione 1003 hPa
Visibilità 10 km o più
Nubi sparse ad un'altezza di 3000 ft

METAR: NFFN 240500Z 29011KT 9999 SCT030 30/22 Q1003 NOSIG

Ora: 17:32 (05:32 UTC)

Previsione

Il bollettino è stato emesso 6 ore e 12 minuti fa, alle 23:20 UTC
Previsione valida dal 24 alle 00 UTC al 24 alle 24 UTC
Vento 10 kt da ovest
Visibilità 10 km o più
Nubi sparse ad un'altezza di 2800 ft
Evoluzione graduale
dal 24 alle 04 UTC al 24 alle 06 UTC
Vento 5 kt da est
Evoluzione graduale
dal 24 alle 22 UTC al 24 alle 24 UTC
Vento 10 kt da ovest/nord-ovest

TAF: NFFN 232320Z 2400/2424 27010KT 9999 SCT028 BECMG 2404/2406 10005KT BECMG 2422/2424 29010KT

Osservazioni e previsioni meteorologiche di più di 4000 aeroporti (messaggi METAR e TAF).

Le stazioni disponibili sono rappresentate dai dischi gialli e rossi sulla carta.

Puntare il mouse per vedere il nome della stazione.

Clicca sopra per visualizzare le osservazioni e previsioni meteorologiche.

Per cambiare la mappa : fare clic sui pulsanti verdi con una croce nera per ingrandire, il pulsante verde con un trattino per diminuire, o sulla freccia verde per le mappe adiacenti.


METAR-TAF: